Time;durP1;ratioP1;P1;durP2;ratioP2;P2;SDS_P1;SDS_P2;PMS_P1;PMS_P2;Temp;Humidity;BMP_temperature;BMP_pressure;BME280_temperature;BME280_humidity;BME280_pressure;Samples;Min_cycle;Max_cycle;Signal;HPM_P1;HPM_P2
2022/09/23 00:01:50;;;;;;;1.83;1.30;;;;;;;13.28;100.00;100873.06;5036033;28;20463;-53
2022/09/23 00:04:16;;;;;;;2.60;0.90;;;;;;;13.26;100.00;100867.13;5037953;28;20025;-51
2022/09/23 00:06:42;;;;;;;3.55;1.50;;;;;;;13.23;100.00;100867.47;5044353;28;20017;-51
2022/09/23 00:09:08;;;;;;;2.40;2.20;;;;;;;13.20;100.00;100867.06;5034986;28;20457;-50
2022/09/23 00:11:33;;;;;;;1.40;1.30;;;;;;;13.15;100.00;100867.66;5041260;28;20116;-53
2022/09/23 00:13:59;;;;;;;3.95;1.15;;;;;;;13.12;100.00;100873.38;5034637;28;20051;-49
2022/09/23 00:16:28;;;;;;;1.45;1.02;;;;;;;13.09;100.00;100863.16;5035050;28;20029;-53
2022/09/23 00:18:53;;;;;;;2.15;0.90;;;;;;;13.07;100.00;100863.31;5040391;28;20083;-54
2022/09/23 00:21:20;;;;;;;5.68;2.00;;;;;;;13.04;100.00;100865.56;5036245;28;20464;-50
2022/09/23 00:23:46;;;;;;;2.10;1.35;;;;;;;13.03;100.00;100855.94;5036842;28;20464;-54
2022/09/23 00:26:14;;;;;;;3.17;1.05;;;;;;;13.00;100.00;100859.00;5036974;28;20033;-53
2022/09/23 00:28:41;;;;;;;1.90;1.15;;;;;;;12.98;100.00;100861.84;5034058;28;20013;-54
2022/09/23 00:31:09;;;;;;;1.10;1.00;;;;;;;12.99;100.00;100865.34;5031904;28;20422;-52
2022/09/23 00:33:35;;;;;;;4.22;1.08;;;;;;;12.98;100.00;100863.69;5035088;28;20091;-55
2022/09/23 00:36:02;;;;;;;2.83;1.48;;;;;;;12.90;100.00;100864.66;5037419;28;20025;-54
2022/09/23 00:38:28;;;;;;;3.08;1.25;;;;;;;12.82;100.00;100857.66;5043007;28;20041;-49
2022/09/23 00:40:53;;;;;;;1.30;1.20;;;;;;;12.76;100.00;100855.81;5037342;28;20108;-49
2022/09/23 00:43:18;;;;;;;2.63;0.88;;;;;;;12.71;100.00;100854.75;5035706;28;20319;-51
2022/09/23 00:45:49;;;;;;;2.95;1.00;;;;;;;12.72;100.00;100851.88;5030853;28;20030;-51
2022/09/23 00:48:19;;;;;;;1.60;0.93;;;;;;;12.75;100.00;100858.66;5033426;28;20029;-51
2022/09/23 00:50:50;;;;;;;3.00;1.40;;;;;;;12.73;100.00;100853.53;5032756;28;20075;-54
2022/09/23 00:53:20;;;;;;;1.08;0.45;;;;;;;12.73;100.00;100852.72;5038554;28;20021;-55
2022/09/23 00:55:53;;;;;;;2.63;1.42;;;;;;;12.71;100.00;100846.78;5037282;28;20021;-52
2022/09/23 00:58:30;;;;;;;1.60;1.20;;;;;;;12.68;100.00;100850.66;5036423;28;20025;-55
2022/09/23 01:00:58;;;;;;;2.22;1.75;;;;;;;12.63;100.00;100853.06;5037270;28;20041;-55
2022/09/23 01:03:24;;;;;;;3.65;1.17;;;;;;;12.59;100.00;100847.31;5031438;28;20469;-55
2022/09/23 01:05:50;;;;;;;1.70;1.30;;;;;;;12.56;100.00;100855.66;5041692;28;20067;-55
2022/09/23 01:08:17;;;;;;;1.38;1.27;;;;;;;12.52;100.00;100845.59;5039920;28;20148;-51
2022/09/23 01:10:49;;;;;;;1.80;0.70;;;;;;;12.44;100.00;100844.78;5039732;28;20063;-49
2022/09/23 01:13:31;;;;;;;4.15;1.10;;;;;;;12.38;100.00;100840.22;5035331;28;20068;-50
2022/09/23 01:16:22;;;;;;;2.30;1.23;;;;;;;12.34;100.00;100846.09;5036176;28;20068;-51
2022/09/23 01:19:13;;;;;;;1.85;1.35;;;;;;;12.33;100.00;100850.59;5037888;28;20124;-51
2022/09/23 01:21:50;;;;;;;0.70;0.70;;;;;;;12.35;100.00;100855.75;5028905;28;20049;-49
2022/09/23 01:24:42;;;;;;;0.95;0.82;;;;;;;12.37;100.00;100843.91;5044775;28;20028;-55
2022/09/23 01:27:26;;;;;;;1.10;0.70;;;;;;;12.34;100.00;100838.97;5039302;28;21242;-49
2022/09/23 01:30:05;;;;;;;1.65;1.40;;;;;;;12.34;100.00;100838.97;5027951;28;20025;-53
2022/09/23 01:32:49;;;;;;;0.88;0.70;;;;;;;12.36;100.00;100850.22;5026761;28;20108;-52
2022/09/23 01:35:27;;;;;;;3.10;1.73;;;;;;;12.38;100.00;100847.38;5035679;28;20060;-50
2022/09/23 01:38:07;;;;;;;0.82;0.70;;;;;;;12.36;100.00;100844.91;5036991;28;20360;-55
2022/09/23 01:41:02;;;;;;;2.78;0.80;;;;;;;12.39;100.00;100844.53;5042263;28;20029;-48
2022/09/23 01:43:39;;;;;;;1.40;1.30;;;;;;;12.40;100.00;100842.69;5030112;28;20553;-52
2022/09/23 01:46:41;;;;;;;1.70;0.80;;;;;;;12.38;100.00;100834.06;5032167;28;20064;-49
2022/09/23 01:49:15;;;;;;;2.65;1.13;;;;;;;12.36;100.00;100831.59;5035364;28;20120;-49
2022/09/23 01:51:51;;;;;;;1.40;0.55;;;;;;;12.39;100.00;100820.59;5036565;28;20021;-54
2022/09/23 01:54:41;;;;;;;1.25;1.15;;;;;;;12.40;100.00;100829.38;5029474;28;20076;-53
2022/09/23 01:57:17;;;;;;;3.03;0.93;;;;;;;12.39;100.00;100825.91;5031524;28;20025;-49
2022/09/23 01:59:50;;;;;;;0.70;0.63;;;;;;;12.42;100.00;100830.03;5037574;28;20036;-52
2022/09/23 02:02:27;;;;;;;2.25;1.15;;;;;;;12.39;100.00;100825.91;5027950;28;20021;-54
2022/09/23 02:05:46;;;;;;;2.08;1.00;;;;;;;12.36;100.00;100826.28;5027892;28;20079;-54
2022/09/23 02:08:26;;;;;;;0.98;0.98;;;;;;;12.39;100.00;100825.06;5028700;28;20132;-52
2022/09/23 02:11:14;;;;;;;0.95;0.82;;;;;;;12.42;100.00;100820.19;5032496;28;20033;-49
2022/09/23 02:13:45;;;;;;;0.70;0.70;;;;;;;12.49;100.00;100827.38;5034076;28;20053;-54
2022/09/23 02:16:34;;;;;;;0.88;0.73;;;;;;;12.53;100.00;100826.00;5030367;28;20095;-48
2022/09/23 02:19:12;;;;;;;2.58;0.75;;;;;;;12.63;100.00;100829.94;5030881;28;20495;-54
2022/09/23 02:21:42;;;;;;;2.42;1.60;;;;;;;12.76;100.00;100834.50;5034973;28;20051;-50
2022/09/23 02:24:17;;;;;;;2.40;1.90;;;;;;;12.89;100.00;100831.09;5039273;28;20045;-52
2022/09/23 02:26:54;;;;;;;2.90;1.55;;;;;;;13.00;100.00;100827.88;5031080;28;20060;-54
2022/09/23 02:29:28;;;;;;;4.53;1.80;;;;;;;13.03;100.00;100818.66;5028685;28;20017;-50
2022/09/23 02:32:05;;;;;;;8.65;2.15;;;;;;;13.07;100.00;100817.25;5032525;28;20060;-51
2022/09/23 02:34:41;;;;;;;3.15;1.65;;;;;;;13.09;100.00;100816.03;5034318;28;20100;-54
2022/09/23 02:37:13;;;;;;;5.93;2.50;;;;;;;13.11;100.00;100813.16;5033299;28;20044;-53
2022/09/23 02:40:07;;;;;;;2.67;1.75;;;;;;;13.16;100.00;100816.03;5037787;28;20017;-54
2022/09/23 02:42:50;;;;;;;1.58;1.48;;;;;;;13.18;100.00;100818.53;5034621;28;20033;-50
2022/09/23 02:45:16;;;;;;;5.75;2.22;;;;;;;13.20;100.00;100813.81;5032567;28;20044;-52
2022/09/23 02:47:46;;;;;;;2.80;2.13;;;;;;;13.21;100.00;100810.94;5036442;28;20496;-48
2022/09/23 02:50:11;;;;;;;2.78;2.00;;;;;;;13.20;100.00;100809.31;5035156;28;20033;-53
2022/09/23 02:52:37;;;;;;;2.13;1.95;;;;;;;13.19;100.00;100813.00;5042557;28;20029;-49
2022/09/23 02:55:05;;;;;;;2.28;1.70;;;;;;;13.22;100.00;100815.25;5042729;28;20035;-53
2022/09/23 02:57:31;;;;;;;4.15;2.08;;;;;;;13.25;100.00;100811.38;5033655;28;20542;-51
2022/09/23 02:59:57;;;;;;;2.95;1.75;;;;;;;13.24;100.00;100802.56;5041549;28;20104;-51
2022/09/23 03:02:40;;;;;;;3.63;1.15;;;;;;;13.28;100.00;100803.03;5043988;28;20345;-50
2022/09/23 03:05:25;;;;;;;3.65;2.22;;;;;;;13.29;100.00;100802.81;5035680;28;20036;-50
2022/09/23 03:08:28;;;;;;;2.03;1.83;;;;;;;13.30;100.00;100807.13;5043204;28;20022;-51
2022/09/23 03:11:11;;;;;;;4.25;2.40;;;;;;;13.29;100.00;100810.81;5035196;28;20034;-51
2022/09/23 03:14:27;;;;;;;2.80;2.10;;;;;;;13.32;100.00;100812.25;5036263;28;20071;-51
2022/09/23 03:17:03;;;;;;;3.17;2.35;;;;;;;13.33;100.00;100813.06;5027964;28;21429;-53
2022/09/23 03:19:47;;;;;;;2.38;1.92;;;;;;;13.33;100.00;100813.06;5038138;28;20021;-54
2022/09/23 03:22:17;;;;;;;2.20;1.65;;;;;;;13.29;100.00;100805.50;5036155;28;20068;-54
2022/09/23 03:24:44;;;;;;;2.42;1.35;;;;;;;13.27;100.00;100802.19;5040601;28;20055;-57
2022/09/23 03:27:16;;;;;;;3.10;2.80;;;;;;;13.26;100.00;100802.34;5041524;28;20044;-57
2022/09/23 03:29:49;;;;;;;2.50;2.03;;;;;;;13.23;100.00;100806.25;5029520;28;20477;-52
2022/09/23 03:32:18;;;;;;;2.75;1.80;;;;;;;13.22;100.00;100801.94;5039939;28;20025;-52
2022/09/23 03:34:47;;;;;;;7.07;2.25;;;;;;;13.21;100.00;100802.13;5043373;28;20017;-51
2022/09/23 03:37:18;;;;;;;3.08;2.00;;;;;;;13.20;100.00;100804.00;5034892;28;20049;-51
2022/09/23 03:39:51;;;;;;;2.13;2.00;;;;;;;13.20;100.00;100793.34;5042020;28;20099;-53
2022/09/23 03:42:23;;;;;;;2.40;2.20;;;;;;;13.21;100.00;100796.81;5032524;28;20500;-54
2022/09/23 03:44:53;;;;;;;3.05;2.38;;;;;;;13.21;100.00;100791.50;5039536;28;20035;-54
2022/09/23 03:47:19;;;;;;;3.15;2.38;;;;;;;13.20;100.00;100800.50;5044146;28;20033;-55
2022/09/23 03:49:47;;;;;;;2.75;2.55;;;;;;;13.20;100.00;100790.69;5031325;28;20039;-56
2022/09/23 03:52:16;;;;;;;3.55;2.38;;;;;;;13.23;100.00;100800.09;5039171;28;20075;-55
2022/09/23 03:54:42;;;;;;;2.10;1.90;;;;;;;13.21;100.00;100797.63;5041848;28;20083;-55
2022/09/23 03:57:09;;;;;;;2.35;2.15;;;;;;;13.20;100.00;100798.66;5038498;28;20033;-54
2022/09/23 03:59:34;;;;;;;4.20;2.50;;;;;;;13.24;100.00;100801.72;5038401;28;20021;-56
2022/09/23 04:02:01;;;;;;;4.25;2.08;;;;;;;13.21;100.00;100802.94;5038359;28;20360;-53
2022/09/23 04:04:27;;;;;;;2.45;2.25;;;;;;;13.20;100.00;100790.69;5039849;28;20060;-54
2022/09/23 04:06:53;;;;;;;2.72;2.53;;;;;;;13.20;100.00;100798.66;5039335;28;20429;-56
2022/09/23 04:09:19;;;;;;;4.07;2.25;;;;;;;13.22;100.00;100796.63;5036668;28;20087;-56
2022/09/23 04:11:46;;;;;;;2.15;1.95;;;;;;;13.21;100.00;100794.97;5035611;28;20041;-57
2022/09/23 04:14:12;;;;;;;2.40;2.08;;;;;;;13.22;100.00;100788.63;5040421;28;20042;-54
2022/09/23 04:16:37;;;;;;;3.65;2.33;;;;;;;13.22;100.00;100793.97;5035673;28;20033;-54
2022/09/23 04:19:03;;;;;;;1.50;1.38;;;;;;;13.23;100.00;100786.78;5039825;28;20032;-55
2022/09/23 04:21:29;;;;;;;3.67;2.13;;;;;;;13.23;100.00;100787.59;5034599;28;20459;-54
2022/09/23 04:23:55;;;;;;;2.28;1.85;;;;;;;13.23;100.00;100784.94;5038863;28;20382;-56
2022/09/23 04:26:20;;;;;;;2.30;1.90;;;;;;;13.25;100.00;100795.41;5033135;28;20091;-57
2022/09/23 04:28:45;;;;;;;1.67;1.55;;;;;;;13.26;100.00;100783.72;5035702;28;20514;-57
2022/09/23 04:31:11;;;;;;;1.88;1.77;;;;;;;13.24;100.00;100789.25;5038397;28;20036;-58
2022/09/23 04:33:36;;;;;;;1.92;1.33;;;;;;;13.26;100.00;100789.88;5041733;28;20022;-52
2022/09/23 04:36:02;;;;;;;1.75;1.30;;;;;;;13.27;100.00;100786.22;5041476;28;20028;-56
2022/09/23 04:38:29;;;;;;;3.05;1.75;;;;;;;13.26;100.00;100792.56;5049210;28;20447;-58
2022/09/23 04:40:54;;;;;;;3.00;2.65;;;;;;;13.28;100.00;100798.50;5040249;28;20386;-53
2022/09/23 04:43:22;;;;;;;1.60;1.50;;;;;;;13.30;100.00;100807.13;5043609;28;20026;-56
2022/09/23 04:45:59;;;;;;;1.52;0.98;;;;;;;13.31;100.00;100803.44;5042639;28;20562;-57
2022/09/23 04:48:25;;;;;;;1.20;1.08;;;;;;;13.31;100.00;100799.94;5043938;28;20032;-52
2022/09/23 04:50:50;;;;;;;1.85;1.75;;;;;;;13.33;100.00;100799.75;5041453;28;20025;-54
2022/09/23 04:53:16;;;;;;;1.60;1.30;;;;;;;13.35;100.00;100795.06;5048966;28;20107;-57
2022/09/23 04:55:42;;;;;;;1.25;1.23;;;;;;;13.36;100.00;100794.03;5033745;28;20040;-53
2022/09/23 04:58:08;;;;;;;1.92;1.83;;;;;;;13.36;100.00;100794.84;5031104;28;20148;-57
2022/09/23 05:00:34;;;;;;;3.13;2.53;;;;;;;13.37;100.00;100790.31;5033505;28;20108;-53
2022/09/23 05:03:00;;;;;;;1.42;1.33;;;;;;;13.35;100.00;100785.22;5044697;28;20136;-55
2022/09/23 05:05:27;;;;;;;1.33;1.23;;;;;;;13.35;100.00;100787.88;5032278;28;20041;-55
2022/09/23 05:07:53;;;;;;;0.98;0.93;;;;;;;13.36;100.00;100786.03;5035825;28;20033;-52
2022/09/23 05:10:19;;;;;;;1.55;1.45;;;;;;;13.35;100.00;100787.06;5033588;28;20738;-56
2022/09/23 05:12:44;;;;;;;2.45;1.15;;;;;;;13.35;100.00;100792.41;5031947;28;20161;-52
2022/09/23 05:15:09;;;;;;;1.33;1.23;;;;;;;13.34;100.00;100790.72;5034969;28;20131;-54
2022/09/23 05:17:36;;;;;;;1.48;1.33;;;;;;;13.33;100.00;100797.91;5034263;28;20367;-52
2022/09/23 05:20:01;;;;;;;1.75;1.35;;;;;;;13.32;100.00;100790.97;5032649;28;20619;-51
2022/09/23 05:22:28;;;;;;;4.18;1.52;;;;;;;13.31;100.00;100797.28;5030148;28;20017;-55
2022/09/23 05:24:53;;;;;;;2.30;1.50;;;;;;;13.30;100.00;100791.16;5033273;28;20040;-55
2022/09/23 05:27:20;;;;;;;1.90;1.80;;;;;;;13.30;100.00;100793.00;5035230;28;20113;-53
2022/09/23 05:29:46;;;;;;;1.08;1.00;;;;;;;13.27;100.00;100802.19;5040859;28;20037;-52
2022/09/23 05:32:12;;;;;;;1.77;1.67;;;;;;;13.26;100.00;100800.53;5041808;28;20052;-53
2022/09/23 05:34:37;;;;;;;1.00;0.95;;;;;;;13.27;100.00;100802.19;5024551;28;20104;-52
2022/09/23 05:37:04;;;;;;;1.23;1.10;;;;;;;13.27;100.00;100798.72;5032855;28;20482;-53
2022/09/23 05:39:29;;;;;;;1.73;1.63;;;;;;;13.25;100.00;100809.53;5034469;28;20393;-53
2022/09/23 05:41:54;;;;;;;4.97;2.58;;;;;;;13.25;100.00;100808.72;5032498;28;20120;-57
2022/09/23 05:44:20;;;;;;;2.38;1.90;;;;;;;13.24;100.00;100815.91;5033125;28;20132;-53
2022/09/23 05:46:45;;;;;;;1.92;1.80;;;;;;;13.23;100.00;100813.41;5028326;28;20026;-52
2022/09/23 05:49:11;;;;;;;1.48;1.38;;;;;;;13.25;100.00;100820.19;5031754;28;20033;-55
2022/09/23 05:51:36;;;;;;;2.22;1.02;;;;;;;13.25;100.00;100819.38;5025519;28;20027;-51
2022/09/23 05:54:03;;;;;;;1.65;1.55;;;;;;;13.24;100.00;100820.38;5034213;28;20034;-52
2022/09/23 05:56:29;;;;;;;1.17;1.10;;;;;;;13.27;100.00;100814.69;5033741;28;20037;-54
2022/09/23 05:58:57;;;;;;;1.33;1.20;;;;;;;13.29;100.00;100815.28;5029154;28;20026;-52
2022/09/23 06:01:25;;;;;;;1.90;1.70;;;;;;;13.28;100.00;100822.47;5025338;28;20039;-54
2022/09/23 06:03:54;;;;;;;3.45;1.73;;;;;;;13.28;100.00;100827.81;5024470;28;20041;-54
2022/09/23 06:06:25;;;;;;;2.25;1.60;;;;;;;13.28;100.00;100827.81;5027809;28;20033;-52
2022/09/23 06:08:50;;;;;;;1.85;1.65;;;;;;;13.28;100.00;100832.31;5030046;28;20029;-51
2022/09/23 06:11:16;;;;;;;2.40;2.20;;;;;;;13.27;100.00;100831.50;5030104;28;20041;-51
2022/09/23 06:13:41;;;;;;;3.13;2.08;;;;;;;13.27;100.00;100830.69;5032813;28;20140;-50
2022/09/23 06:16:10;;;;;;;2.90;2.58;;;;;;;13.28;100.00;100834.97;5029566;28;20065;-53
2022/09/23 06:18:40;;;;;;;3.55;3.25;;;;;;;13.29;100.00;100833.94;5031354;28;20026;-55
2022/09/23 06:21:06;;;;;;;4.50;3.13;;;;;;;13.29;100.00;100834.78;5030953;28;20049;-49
2022/09/23 06:23:32;;;;;;;5.93;3.00;;;;;;;13.30;100.00;100836.41;5033873;28;20051;-53
2022/09/23 06:26:01;;;;;;;4.00;3.60;;;;;;;13.32;100.00;100844.22;5032927;28;20037;-53
2022/09/23 06:28:32;;;;;;;4.03;3.22;;;;;;;13.32;100.00;100846.88;5028990;28;20132;-55
2022/09/23 06:30:59;;;;;;;5.57;3.45;;;;;;;13.31;100.00;100843.38;5028707;28;20041;-56
2022/09/23 06:33:25;;;;;;;5.82;4.53;;;;;;;13.31;100.00;100846.03;5041436;28;20037;-53
2022/09/23 06:35:55;;;;;;;4.75;4.15;;;;;;;13.29;100.00;100848.09;5042674;28;20028;-52
2022/09/23 06:38:20;;;;;;;6.85;5.18;;;;;;;13.28;100.00;100849.09;5040974;28;20444;-55
2022/09/23 06:40:49;;;;;;;9.27;5.57;;;;;;;13.28;100.00;100849.09;5034175;28;20112;-53
2022/09/23 06:43:15;;;;;;;6.93;5.25;;;;;;;13.28;100.00;100845.63;5037566;28;20033;-54
2022/09/23 06:45:40;;;;;;;6.78;5.95;;;;;;;13.26;100.00;100848.47;5034912;28;20021;-53
2022/09/23 06:48:08;;;;;;;9.82;6.97;;;;;;;13.27;100.00;100854.66;5042177;28;20482;-52
2022/09/23 06:50:33;;;;;;;9.35;6.40;;;;;;;13.23;100.00;100851.50;5036978;28;20040;-57
2022/09/23 06:52:59;;;;;;;7.22;5.30;;;;;;;13.23;100.00;100856.84;5034449;28;20479;-55
2022/09/23 06:55:26;;;;;;;8.38;6.55;;;;;;;13.22;100.00;100857.06;5045445;28;20030;-50
2022/09/23 06:58:01;;;;;;;10.00;7.22;;;;;;;13.23;100.00;100856.03;5032772;28;20051;-52
2022/09/23 07:00:28;;;;;;;9.20;7.40;;;;;;;13.21;100.00;100863.38;5043445;28;20386;-49
2022/09/23 07:02:53;;;;;;;10.25;8.63;;;;;;;13.19;100.00;100858.28;5038885;28;20052;-50
2022/09/23 07:05:21;;;;;;;10.00;7.38;;;;;;;13.19;100.00;100868.91;5038585;28;20037;-55
2022/09/23 07:07:46;;;;;;;11.02;7.60;;;;;;;13.17;100.00;100865.63;5043132;28;20071;-54
2022/09/23 07:10:12;;;;;;;12.35;8.52;;;;;;;13.16;100.00;100865.81;5035076;28;20458;-53
2022/09/23 07:12:37;;;;;;;13.38;8.95;;;;;;;13.15;100.00;100872.19;5031318;28;20522;-55
2022/09/23 07:15:04;;;;;;;16.83;9.80;;;;;;;13.17;100.00;100873.63;5032035;28;20053;-53
2022/09/23 07:17:29;;;;;;;20.65;10.77;;;;;;;13.19;100.00;100878.72;5042802;28;20120;-51
2022/09/23 07:19:56;;;;;;;12.80;8.65;;;;;;;13.20;100.00;100878.53;5039490;28;20530;-54
2022/09/23 07:22:23;;;;;;;12.07;8.13;;;;;;;13.22;100.00;100881.84;5041310;28;20074;-56
2022/09/23 07:24:49;;;;;;;12.27;8.27;;;;;;;13.24;100.00;100885.13;5047786;28;20064;-52
2022/09/23 07:27:16;;;;;;;11.82;8.73;;;;;;;13.28;100.00;100889.03;5041832;28;20029;-55
2022/09/23 07:29:42;;;;;;;12.95;9.07;;;;;;;13.35;100.00;100882.94;5042699;28;20028;-49
2022/09/23 07:32:07;;;;;;;13.38;8.07;;;;;;;13.39;100.00;100885.00;5028765;28;20393;-52
2022/09/23 07:34:33;;;;;;;12.80;9.80;;;;;;;13.44;100.00;100889.72;5044141;28;20048;-55
2022/09/23 07:36:58;;;;;;;11.13;7.72;;;;;;;13.47;100.00;100886.66;5039957;28;20052;-55
2022/09/23 07:39:24;;;;;;;12.27;8.88;;;;;;;13.50;100.00;100883.56;5045300;28;20403;-53
2022/09/23 07:41:49;;;;;;;13.75;8.90;;;;;;;13.55;100.00;100886.47;5047084;28;20033;-52
2022/09/23 07:44:15;;;;;;;13.55;8.23;;;;;;;13.62;100.00;100891.81;5050746;28;20074;-53
2022/09/23 07:46:40;;;;;;;12.52;8.90;;;;;;;13.67;100.00;100894.72;5030143;28;20513;-52
2022/09/23 07:49:06;;;;;;;15.20;8.50;;;;;;;13.66;100.00;100888.56;5049799;28;20039;-52
2022/09/23 07:51:35;;;;;;;10.30;7.78;;;;;;;13.62;100.00;100889.16;5046162;28;20040;-52
2022/09/23 07:54:00;;;;;;;10.55;7.50;;;;;;;13.52;100.00;100894.88;5041934;28;20037;-55
2022/09/23 07:56:28;;;;;;;11.63;7.95;;;;;;;13.43;100.00;100899.56;5040137;28;20437;-53
2022/09/23 07:59:02;;;;;;;13.23;7.72;;;;;;;13.36;100.00;100892.56;5041567;28;20437;-50
2022/09/23 08:01:33;;;;;;;12.27;8.20;;;;;;;13.36;100.00;100896.03;5043916;28;20110;-51
2022/09/23 08:04:02;;;;;;;12.38;8.48;;;;;;;13.44;100.00;100893.19;5035914;28;20053;-51
2022/09/23 08:06:28;;;;;;;10.18;7.78;;;;;;;13.53;100.00;100880.53;5032987;28;20037;-49
2022/09/23 08:08:56;;;;;;;11.27;8.43;;;;;;;13.63;100.00;100890.78;5042931;28;20031;-50
2022/09/23 08:11:23;;;;;;;12.65;7.55;;;;;;;13.63;100.00;100885.47;5039455;28;20026;-54
2022/09/23 08:13:49;;;;;;;11.32;7.10;;;;;;;13.62;100.00;100891.81;5045771;28;20048;-51
2022/09/23 08:16:14;;;;;;;10.50;7.18;;;;;;;13.57;100.00;100892.41;5036532;28;20381;-49
2022/09/23 08:18:43;;;;;;;9.15;6.53;;;;;;;13.48;100.00;100889.13;5037220;28;20052;-51
2022/09/23 08:21:08;;;;;;;10.55;8.13;;;;;;;13.45;100.00;100894.00;5044775;28;20112;-52
2022/09/23 08:23:33;;;;;;;7.63;5.18;;;;;;;13.43;100.00;100890.75;5041664;28;20112;-55
2022/09/23 08:26:01;;;;;;;8.93;6.47;;;;;;;13.47;100.00;100898.13;5044667;28;20114;-51
2022/09/23 08:28:27;;;;;;;11.00;6.47;;;;;;;13.53;100.00;100891.19;5049844;28;20033;-52
2022/09/23 08:30:53;;;;;;;7.28;5.07;;;;;;;13.68;100.00;100891.84;5045106;28;20037;-51
2022/09/23 08:33:18;;;;;;;6.55;5.05;;;;;;;13.81;100.00;100899.06;5042726;28;20395;-52
2022/09/23 08:35:43;;;;;;;5.47;4.30;;;;;;;13.94;100.00;100898.25;5045214;28;20479;-53
2022/09/23 08:38:09;;;;;;;2.85;2.65;;;;;;;13.95;100.00;100897.22;5031187;28;20029;-48
2022/09/23 08:40:38;;;;;;;3.83;3.10;;;;;;;13.95;100.00;100899.91;5044365;28;20425;-50
2022/09/23 08:43:33;;;;;;;2.22;1.77;;;;;;;13.83;100.00;100899.66;5047131;28;20021;-54
2022/09/23 08:46:04;;;;;;;2.20;1.92;;;;;;;13.78;100.00;100898.63;5042746;28;20508;-50
2022/09/23 08:48:43;;;;;;;1.95;1.85;;;;;;;13.97;100.00;100897.84;5040950;28;20420;-55
2022/09/23 08:51:14;;;;;;;2.50;2.30;;;;;;;14.10;100.00;100892.53;5031981;28;20030;-53
2022/09/23 08:53:41;;;;;;;;;;;;;;;14.28;100.00;100899.94;5041581;28;20364;-51
2022/09/23 08:56:18;;;;;;;2.03;1.80;;;;;;;14.50;100.00;100891.69;5046501;28;19913;-53
2022/09/23 08:59:27;;;;;;;2.47;2.30;;;;;;;14.82;100.00;100901.53;5036155;28;20033;-56
2022/09/23 09:02:13;;;;;;;3.25;2.42;;;;;;;15.07;100.00;100895.50;5034874;28;20053;-53
2022/09/23 09:04:43;;;;;;;4.75;2.67;;;;;;;15.24;100.00;100888.66;5047565;28;20272;-51
2022/09/23 09:07:08;;;;;;;1.98;1.80;;;;;;;15.16;100.00;100880.09;5036700;28;20430;-53
2022/09/23 09:09:44;;;;;;;3.30;2.45;;;;;;;15.06;100.00;100885.88;5031233;28;20025;-52
2022/09/23 09:12:19;;;;;;;4.50;2.78;;;;;;;15.01;100.00;100893.69;5039848;28;20087;-50
2022/09/23 09:15:04;;;;;;;2.38;2.17;;;;;;;14.92;100.00;100895.78;5062636;28;20399;-52
2022/09/23 09:17:37;;;;;;;6.93;2.58;;;;;;;14.95;100.00;100887.34;5042036;28;20071;-49
2022/09/23 09:20:20;;;;;;;2.63;2.13;;;;;;;15.01;100.00;100904.38;5047985;28;20111;-50
2022/09/23 09:22:51;;;;;;;2.45;2.22;;;;;;;14.98;100.00;100891.44;5039667;28;20032;-52
2022/09/23 09:25:55;;;;;;;3.03;1.98;;;;;;;15.09;100.00;100890.78;5044394;28;20048;-55
2022/09/23 09:28:29;;;;;;;3.00;2.28;;;;;;;15.15;100.00;100887.25;5045694;28;20045;-51
2022/09/23 09:30:59;;;;;;;4.38;2.75;;;;;;;15.11;100.00;100887.91;5040707;28;20060;-52
2022/09/23 09:33:39;;;;;;;3.33;1.95;;;;;;;15.05;100.00;100890.41;5044463;28;20064;-52
2022/09/23 09:36:07;;;;;;;2.70;2.50;;;;;;;15.01;100.00;100889.16;5046069;28;20033;-56
2022/09/23 09:38:36;;;;;;;2.72;1.98;;;;;;;14.94;100.00;100888.34;5042483;28;20043;-51
2022/09/23 09:41:11;;;;;;;2.80;2.13;;;;;;;14.87;100.00;100890.25;5042334;28;20376;-52
2022/09/23 09:43:39;;;;;;;3.00;2.30;;;;;;;14.87;100.00;100894.75;5031794;28;20100;-51
2022/09/23 09:46:14;;;;;;;4.63;3.17;;;;;;;14.90;100.00;100894.34;5032896;28;20053;-46
2022/09/23 09:48:52;;;;;;;6.78;3.42;;;;;;;14.86;100.00;100898.44;5044499;28;20474;-53
2022/09/23 09:51:21;;;;;;;3.75;2.72;;;;;;;14.77;100.00;100890.66;5045123;28;20129;-55
2022/09/23 09:53:50;;;;;;;4.68;3.33;;;;;;;14.75;100.00;100894.56;5046136;28;20614;-52
2022/09/23 09:56:29;;;;;;;4.78;3.28;;;;;;;14.75;100.00;100891.91;5048168;28;20072;-53
2022/09/23 09:59:00;;;;;;;3.90;3.00;;;;;;;14.79;100.00;100893.13;5043082;28;20036;-51
2022/09/23 10:01:28;;;;;;;5.03;3.03;;;;;;;14.86;100.00;100895.78;5031321;28;20032;-53
2022/09/23 10:03:56;;;;;;;2.97;2.67;;;;;;;14.95;100.00;100895.34;5042813;28;20029;-53
2022/09/23 10:06:24;;;;;;;4.28;2.92;;;;;;;15.07;100.00;100887.50;5040966;28;20040;-50
2022/09/23 10:09:09;;;;;;;4.00;2.92;;;;;;;15.18;100.00;100888.69;5042790;28;20041;-53
2022/09/23 10:11:36;;;;;;;4.35;3.65;;;;;;;15.24;100.00;100882.50;5037890;28;20033;-51
2022/09/23 10:14:16;;;;;;;4.65;3.42;;;;;;;15.24;100.00;100879.84;5043671;28;20045;-53
2022/09/23 10:16:42;;;;;;;4.60;3.78;;;;;;;15.43;100.00;100880.78;5045727;28;20029;-55
2022/09/23 10:19:24;;;;;;;5.43;2.97;;;;;;;15.65;100.00;100871.41;5043847;28;20017;-53
2022/09/23 10:21:55;;;;;;;3.33;2.95;;;;;;;15.82;100.00;100852.19;5044099;28;20037;-51
2022/09/23 10:24:25;;;;;;;2.22;1.75;;;;;;;16.00;100.00;100860.28;5044493;28;20033;-54
2022/09/23 10:27:10;;;;;;;2.95;2.42;;;;;;;16.04;100.00;100853.47;5028876;28;20116;-51
2022/09/23 10:29:38;;;;;;;2.45;1.67;;;;;;;16.10;100.00;100862.50;5024131;28;20478;-49
2022/09/23 10:32:33;;;;;;;4.97;3.13;;;;;;;16.26;100.00;100851.25;5025489;28;20029;-50
2022/09/23 10:35:07;;;;;;;2.60;1.92;;;;;;;16.46;100.00;100859.09;5024687;28;20033;-50
2022/09/23 10:37:36;;;;;;;2.20;1.85;;;;;;;16.39;100.00;100841.44;5020173;28;20320;-51
2022/09/23 10:49:16;;;;;;;3.85;2.03;;;;;;;16.47;100.00;100841.16;5034418;28;20409;-47
2022/09/23 10:51:42;;;;;;;3.13;2.80;;;;;;;16.24;100.00;100834.59;5030441;28;20399;-54
2022/09/23 10:54:30;;;;;;;1.92;1.83;;;;;;;16.20;100.00;100840.59;5026017;28;20037;-51
2022/09/23 10:57:38;;;;;;;3.33;1.95;;;;;;;16.09;100.00;100831.44;5030947;28;20109;-53
2022/09/23 11:00:16;;;;;;;3.78;1.80;;;;;;;16.05;100.00;100835.56;5028673;28;20029;-54
2022/09/23 11:03:08;;;;;;;2.53;1.70;;;;;;;15.99;100.00;100836.47;5018633;28;20034;-52
2022/09/23 11:05:57;;;;;;;2.97;2.33;;;;;;;15.90;100.00;100846.59;5018124;28;20030;-54
2022/09/23 11:08:48;;;;;;;3.92;2.25;;;;;;;15.87;100.00;100841.69;5030541;28;20045;-48
2022/09/23 11:11:39;;;;;;;2.38;1.98;;;;;;;15.78;100.00;100843.00;5023888;28;20049;-53
2022/09/23 11:14:22;;;;;;;5.13;3.17;;;;;;;15.84;100.00;100840.25;5020404;28;20057;-49
2022/09/23 11:17:19;;;;;;;7.72;3.15;;;;;;;15.95;100.00;100837.91;5027325;28;20482;-58
2022/09/23 11:20:08;;;;;;;2.65;2.45;;;;;;;16.00;100.00;100841.56;5027588;28;20465;-52
2022/09/23 11:22:52;;;;;;;5.40;3.42;;;;;;;15.87;100.00;100834.47;5030798;28;20116;-55
2022/09/23 11:25:30;;;;;;;3.13;2.72;;;;;;;15.80;100.00;100831.06;5024252;28;20108;-55
2022/09/23 11:28:07;;;;;;;6.28;3.78;;;;;;;15.88;100.00;100830.78;5028652;28;20112;-55
2022/09/23 11:31:05;;;;;;;2.70;2.42;;;;;;;16.07;100.00;100825.47;5029253;28;20045;-53
2022/09/23 11:33:47;;;;;;;2.25;1.92;;;;;;;16.19;100.00;100815.72;5019434;28;20064;-54
2022/09/23 11:36:29;;;;;;;2.15;2.00;;;;;;;16.41;100.00;100817.97;5029292;28;20057;-54
2022/09/23 11:38:59;;;;;;;4.22;2.38;;;;;;;16.51;100.00;100823.63;5030904;28;20037;-53
2022/09/23 11:41:29;;;;;;;1.15;1.10;;;;;;;16.50;100.00;100806.75;5025930;28;20112;-51
2022/09/23 11:44:16;;;;;;;1.67;1.40;;;;;;;16.39;100.00;100806.66;5032688;28;20034;-49
2022/09/23 11:47:06;;;;;;;1.67;1.58;;;;;;;16.37;100.00;100806.91;5019043;28;20101;-50
2022/09/23 11:49:39;;;;;;;1.85;1.67;;;;;;;16.50;100.00;100805.94;5027501;28;20111;-54